Time;durP1;ratioP1;P1;durP2;ratioP2;P2;SDS_P1;SDS_P2;PMS_P1;PMS_P2;Temp;Humidity;BMP_temperature;BMP_pressure;BME280_temperature;BME280_humidity;BME280_pressure;Samples;Min_cycle;Max_cycle;Signal;HPM_P1;HPM_P2
2023/05/20 00:00:28;;;;;;;;;;;;;;;;;;5091423;28;19924;-60
2023/05/20 00:02:54;;;;;;;;;;;;;;;;;;5093479;28;19920;-60
2023/05/20 00:05:20;;;;;;;;;;;;;;;;;;5093537;28;19930;-60
2023/05/20 00:07:46;;;;;;;;;;;;;;;;;;5092892;28;19923;-60
2023/05/20 00:10:12;;;;;;;;;;;;;;;;;;5093672;28;19928;-60
2023/05/20 00:12:38;;;;;;;;;;;;;;;;;;5084068;28;20036;-60
2023/05/20 00:15:04;;;;;;;;;;;;;;;;;;5087036;28;19935;-60
2023/05/20 00:17:30;;;;;;;;;;;;;;;;;;5095770;28;20319;-60
2023/05/20 00:19:55;;;;;;;;;;;;;;;;;;5102770;28;19926;-60
2023/05/20 00:22:21;;;;;;;;;;;;;;;;;;5092337;28;19924;-60
2023/05/20 00:24:47;;;;;;;;;;;;;;;;;;5089624;28;19930;-60
2023/05/20 00:27:13;;;;;;;;;;;;;;;;;;5088173;28;19982;-60
2023/05/20 00:29:39;;;;;;;;;;;;;;;;;;5089569;28;19920;-61
2023/05/20 00:32:05;;;;;;;;;;;;;;;;;;5089890;28;19923;-61
2023/05/20 00:34:31;;;;;;;;;;;;;;;;;;5088693;28;19935;-61
2023/05/20 00:36:57;;;;;;;;;;;;;;;;;;5084040;28;19959;-61
2023/05/20 00:39:23;;;;;;;;;;;;;;;;;;5093885;28;20378;-61
2023/05/20 00:41:48;;;;;;;;;;;;;;;;;;5091406;28;19928;-62
2023/05/20 00:44:15;;;;;;;;;;;;;;;;;;5093601;28;20323;-61
2023/05/20 00:46:40;;;;;;;;;;;;;;;;;;5091440;28;19955;-61
2023/05/20 00:49:06;;;;;;;;;;;;;;;;;;5089920;28;19994;-61
2023/05/20 00:51:32;;;;;;;;;;;;;;;;;;5090735;28;19924;-61
2023/05/20 00:53:58;;;;;;;;;;;;;;;;;;5084728;28;19950;-61
2023/05/20 00:56:25;;;;;;;;;;;;;;;;;;5083327;28;19924;-61
2023/05/20 00:58:51;;;;;;;;;;;;;;;;;;5091060;28;20350;-61
2023/05/20 01:01:16;;;;;;;;;;;;;;;;;;5096766;28;19963;-61
2023/05/20 01:03:42;;;;;;;;;;;;;;;;;;5085620;28;19920;-61
2023/05/20 01:06:08;;;;;;;;;;;;;;;;;;5098471;28;19924;-61
2023/05/20 01:08:34;;;;;;;;;;;;;;;;;;5090877;28;19928;-61
2023/05/20 01:11:00;;;;;;;;;;;;;;;;;;5095603;28;19978;-61
2023/05/20 01:13:26;;;;;;;;;;;;;;;;;;5094357;28;20433;-61
2023/05/20 01:15:52;;;;;;;;;;;;;;;;;;5088942;28;19924;-60
2023/05/20 01:18:19;;;;;;;;;;;;;;;;;;5090653;28;19935;-61
2023/05/20 01:20:45;;;;;;;;;;;;;;;;;;5090949;28;19924;-61
2023/05/20 01:23:11;;;;;;;;;;;;;;;;;;5093282;28;19928;-61
2023/05/20 01:25:37;;;;;;;;;;;;;;;;;;5100912;28;20396;-61
2023/05/20 01:28:03;;;;;;;;;;;;;;;;;;5097854;28;19924;-61
2023/05/20 01:30:29;;;;;;;;;;;;;;;;;;5082642;28;20377;-61
2023/05/20 01:32:55;;;;;;;;;;;;;;;;;;5090524;28;19927;-60
2023/05/20 01:35:21;;;;;;;;;;;;;;;;;;5088293;28;19935;-61
2023/05/20 01:37:47;;;;;;;;;;;;;;;;;;5097600;28;19947;-60
2023/05/20 01:40:12;;;;;;;;;;;;;;;;;;5079108;28;19927;-60
2023/05/20 01:42:38;;;;;;;;;;;;;;;;;;5089620;28;19920;-61
2023/05/20 01:45:04;;;;;;;;;;;;;;;;;;5088563;28;20370;-61
2023/05/20 01:47:30;;;;;;;;;;;;;;;;;;5072155;28;20010;-61
2023/05/20 01:49:56;;;;;;;;;;;;;;;;;;5086418;28;19919;-61
2023/05/20 01:52:22;;;;;;;;;;;;;;;;;;5086736;28;20015;-59
2023/05/20 01:54:50;;;;;;;;;;;;;;;;;;5087351;28;19928;-60
2023/05/20 01:57:16;;;;;;;;;;;;;;;;;;5111540;27;19930;-60
2023/05/20 01:59:41;;;;;;;;;;;;;;;;;;5090218;28;20299;-60
2023/05/20 02:02:07;;;;;;;;;;;;;;;;;;5089742;28;19926;-61
2023/05/20 02:04:33;;;;;;;;;;;;;;;;;;5084813;28;19927;-60
2023/05/20 02:06:59;;;;;;;;;;;;;;;;;;5095226;28;20657;-60
2023/05/20 02:09:25;;;;;;;;;;;;;;;;;;5099224;28;19930;-60
2023/05/20 02:11:51;;;;;;;;;;;;;;;;;;5101076;28;20338;-60
2023/05/20 02:14:17;;;;;;;;;;;;;;;;;;5081241;28;19928;-60
2023/05/20 02:16:43;;;;;;;;;;;;;;;;;;5087717;28;19924;-60
2023/05/20 02:19:11;;;;;;;;;;;;;;;;;;5090929;28;19924;-60
2023/05/20 02:21:37;;;;;;;;;;;;;;;;;;5096198;28;20015;-60
2023/05/20 02:24:04;;;;;;;;;;;;;;;;;;5090267;28;20983;-60
2023/05/20 02:26:29;;;;;;;;;;;;;;;;;;5086769;28;19979;-60
2023/05/20 02:28:55;;;;;;;;;;;;;;;;;;5090504;28;19978;-60
2023/05/20 02:31:21;;;;;;;;;;;;;;;;;;5085755;28;19926;-61
2023/05/20 02:33:47;;;;;;;;;;;;;;;;;;5089707;28;19928;-61
2023/05/20 02:36:14;;;;;;;;;;;;;;;;;;5089523;28;19928;-61
2023/05/20 02:38:40;;;;;;;;;;;;;;;;;;5089213;28;19928;-61
2023/05/20 02:41:06;;;;;;;;;;;;;;;;;;5084646;28;20529;-60
2023/05/20 02:43:32;;;;;;;;;;;;;;;;;;5088665;28;19993;-60
2023/05/20 02:45:58;;;;;;;;;;;;;;;;;;5085947;28;19924;-60
2023/05/20 02:48:23;;;;;;;;;;;;;;;;;;5091953;28;20008;-60
2023/05/20 02:50:50;;;;;;;;;;;;;;;;;;5092317;28;19920;-60
2023/05/20 02:53:15;;;;;;;;;;;;;;;;;;5090992;28;19928;-60
2023/05/20 02:55:43;;;;;;;;;;;;;;;;;;5088418;28;19947;-60
2023/05/20 02:58:09;;;;;;;;;;;;;;;;;;5085473;28;19924;-60
2023/05/20 03:00:39;;;;;;;;;;;;;;;;;;5101160;28;20070;-60
2023/05/20 03:03:06;;;;;;;;;;;;;;;;;;5091801;28;19919;-61
2023/05/20 03:05:32;;;;;;;;;;;;;;;;;;5090231;28;19927;-61
2023/05/20 03:07:58;;;;;;;;;;;;;;;;;;5090282;28;19921;-61
2023/05/20 03:10:24;;;;;;;;;;;;;;;;;;5091941;28;20396;-61
2023/05/20 03:12:49;;;;;;;;;;;;;;;;;;5085875;28;19928;-61
2023/05/20 03:15:15;;;;;;;;;;;;;;;;;;5081360;28;19927;-61
2023/05/20 03:17:41;;;;;;;;;;;;;;;;;;5089822;28;20328;-60
2023/05/20 03:20:07;;;;;;;;;;;;;;;;;;5092792;28;19924;-60
2023/05/20 03:22:33;;;;;;;;;;;;;;;;;;5103695;28;19930;-61
2023/05/20 03:24:59;;;;;;;;;;;;;;;;;;5100500;28;20265;-60
2023/05/20 03:27:25;;;;;;;;;;;;;;;;;;5089339;28;19920;-60
2023/05/20 03:29:53;;;;;;;;;;;;;;;;;;5095089;28;20320;-60
2023/05/20 03:32:19;;;;;;;;;;;;;;;;;;5090481;28;19931;-60
2023/05/20 03:34:45;;;;;;;;;;;;;;;;;;5092744;28;19963;-59
2023/05/20 03:37:11;;;;;;;;;;;;;;;;;;5092772;28;19991;-60
2023/05/20 03:39:37;;;;;;;;;;;;;;;;;;5089303;28;19924;-60
2023/05/20 03:42:03;;;;;;;;;;;;;;;;;;5084280;28;20015;-60
2023/05/20 03:44:29;;;;;;;;;;;;;;;;;;5106847;28;20038;-60
2023/05/20 03:46:55;;;;;;;;;;;;;;;;;;5086471;28;19924;-60
2023/05/20 03:49:20;;;;;;;;;;;;;;;;;;5090728;28;19920;-60
2023/05/20 03:51:46;;;;;;;;;;;;;;;;;;5090416;28;19963;-60
2023/05/20 03:54:12;;;;;;;;;;;;;;;;;;5093370;28;19924;-60
2023/05/20 03:56:38;;;;;;;;;;;;;;;;;;5088833;28;21693;-60
2023/05/20 03:59:04;;;;;;;;;;;;;;;;;;5099550;28;19931;-60
2023/05/20 04:01:30;;;;;;;;;;;;;;;;;;5091721;28;20286;-60
2023/05/20 04:03:56;;;;;;;;;;;;;;;;;;5088788;28;19925;-60
2023/05/20 04:06:22;;;;;;;;;;;;;;;;;;5085916;28;19927;-60
2023/05/20 04:08:48;;;;;;;;;;;;;;;;;;5100334;28;20373;-60
2023/05/20 04:11:14;;;;;;;;;;;;;;;;;;5098229;28;19959;-61
2023/05/20 04:13:40;;;;;;;;;;;;;;;;;;5094434;28;20362;-61
2023/05/20 04:16:06;;;;;;;;;;;;;;;;;;5092144;28;20414;-61
2023/05/20 04:18:32;;;;;;;;;;;;;;;;;;5093368;28;19932;-61
2023/05/20 04:21:00;;;;;;;;;;;;;;;;;;5090041;28;19924;-61
2023/05/20 04:23:26;;;;;;;;;;;;;;;;;;5096794;28;19924;-61
2023/05/20 04:25:52;;;;;;;;;;;;;;;;;;5091921;28;20263;-61
2023/05/20 04:28:18;;;;;;;;;;;;;;;;;;5091315;28;19946;-61
2023/05/20 04:30:44;;;;;;;;;;;;;;;;;;5084906;28;19974;-60
2023/05/20 04:33:10;;;;;;;;;;;;;;;;;;5088931;28;20427;-60
2023/05/20 04:35:36;;;;;;;;;;;;;;;;;;5085949;28;19930;-60
2023/05/20 04:38:02;;;;;;;;;;;;;;;;;;5101335;27;20640;-60
2023/05/20 04:40:28;;;;;;;;;;;;;;;;;;5092302;28;20008;-61
2023/05/20 04:42:54;;;;;;;;;;;;;;;;;;5087579;28;19920;-60
2023/05/20 04:45:22;;;;;;;;;;;;;;;;;;5088886;28;19920;-60
2023/05/20 04:47:48;;;;;;;;;;;;;;;;;;5082950;28;19920;-60
2023/05/20 04:50:14;;;;;;;;;;;;;;;;;;5090724;28;19973;-60
2023/05/20 04:52:41;;;;;;;;;;;;;;;;;;5086928;28;19970;-60
2023/05/20 04:55:10;;;;;;;;;;;;;;;;;;5092700;28;19939;-60
2023/05/20 04:57:38;;;;;;;;;;;;;;;;;;5092311;28;19924;-60
2023/05/20 05:00:06;;;;;;;;;;;;;;;;;;5087933;28;19924;-60
2023/05/20 05:02:32;;;;;;;;;;;;;;;;;;5088931;28;19993;-60
2023/05/20 05:04:58;;;;;;;;;;;;;;;;;;5086376;28;19924;-60
2023/05/20 05:07:24;;;;;;;;;;;;;;;;;;5107981;28;21359;-61
2023/05/20 05:09:50;;;;;;;;;;;;;;;;;;5085204;28;20019;-61
2023/05/20 05:12:16;;;;;;;;;;;;;;;;;;5090606;28;20516;-61
2023/05/20 05:14:42;;;;;;;;;;;;;;;;;;5086242;28;19928;-62
2023/05/20 05:17:07;;;;;;;;;;;;;;;;;;5086889;28;19965;-59
2023/05/20 05:19:33;;;;;;;;;;;;;;;;;;5076422;28;20296;-59
2023/05/20 05:21:59;;;;;;;;;;;;;;;;;;5090185;28;19924;-62
2023/05/20 05:24:25;;;;;;;;;;;;;;;;;;5089336;28;19938;-64
2023/05/20 05:26:51;;;;;;;;;;;;;;;;;;5091245;28;19946;-64
2023/05/20 05:29:17;;;;;;;;;;;;;;;;;;5090529;28;20002;-64
2023/05/20 05:31:43;;;;;;;;;;;;;;;;;;5088333;28;20026;-64
2023/05/20 05:34:09;;;;;;;;;;;;;;;;;;5088567;28;19928;-63
2023/05/20 05:36:35;;;;;;;;;;;;;;;;;;5091036;28;19939;-64
2023/05/20 05:39:00;;;;;;;;;;;;;;;;;;5089724;28;20285;-65
2023/05/20 05:41:26;;;;;;;;;;;;;;;;;;5082528;28;19924;-64
2023/05/20 05:43:52;;;;;;;;;;;;;;;;;;5083022;28;19924;-65
2023/05/20 05:46:18;;;;;;;;;;;;;;;;;;5071963;28;20304;-65
2023/05/20 05:48:47;;;;;;;;;;;;;;;;;;5088373;28;20281;-65
2023/05/20 05:51:13;;;;;;;;;;;;;;;;;;5107842;28;19920;-65
2023/05/20 05:53:39;;;;;;;;;;;;;;;;;;5091875;28;19954;-64
2023/05/20 05:56:05;;;;;;;;;;;;;;;;;;5090227;28;19938;-65
2023/05/20 05:58:31;;;;;;;;;;;;;;;;;;5090485;28;19924;-64
2023/05/20 06:00:57;;;;;;;;;;;;;;;;;;5089699;28;19928;-65
2023/05/20 06:03:23;;;;;;;;;;;;;;;;;;5088827;28;20563;-65
2023/05/20 06:05:49;;;;;;;;;;;;;;;;;;5090699;28;19930;-65
2023/05/20 06:08:15;;;;;;;;;;;;;;;;;;5096953;28;20031;-65
2023/05/20 06:10:41;;;;;;;;;;;;;;;;;;5093813;28;19963;-65
2023/05/20 06:13:07;;;;;;;;;;;;;;;;;;5084215;28;19978;-65
2023/05/20 06:15:33;;;;;;;;;;;;;;;;;;5087028;28;19927;-65
2023/05/20 06:17:59;;;;;;;;;;;;;;;;;;5092906;28;19919;-65
2023/05/20 06:20:25;;;;;;;;;;;;;;;;;;5090730;28;19985;-65
2023/05/20 06:22:51;;;;;;;;;;;;;;;;;;5096897;28;19919;-66
2023/05/20 06:25:17;;;;;;;;;;;;;;;;;;5096384;28;19931;-64
2023/05/20 06:27:43;;;;;;;;;;;;;;;;;;5092235;28;20289;-64
2023/05/20 06:30:08;;;;;;;;;;;;;;;;;;5088255;28;19990;-65
2023/05/20 06:32:34;;;;;;;;;;;;;;;;;;5090631;28;19920;-65
2023/05/20 06:35:00;;;;;;;;;;;;;;;;;;5089046;28;19924;-64
2023/05/20 06:37:26;;;;;;;;;;;;;;;;;;5091390;28;19927;-65
2023/05/20 06:39:52;;;;;;;;;;;;;;;;;;5090022;28;20301;-65
2023/05/20 06:42:18;;;;;;;;;;;;;;;;;;5091694;28;19920;-65
2023/05/20 06:44:44;;;;;;;;;;;;;;;;;;5090547;28;19930;-65
2023/05/20 06:47:10;;;;;;;;;;;;;;;;;;5090725;28;19924;-64
2023/05/20 06:49:36;;;;;;;;;;;;;;;;;;5085810;28;19920;-65
2023/05/20 06:52:02;;;;;;;;;;;;;;;;;;5088411;28;19924;-65
2023/05/20 06:54:28;;;;;;;;;;;;;;;;;;5083796;28;19924;-65
2023/05/20 06:56:54;;;;;;;;;;;;;;;;;;5090756;28;19955;-65
2023/05/20 06:59:20;;;;;;;;;;;;;;;;;;5091568;28;19929;-65
2023/05/20 07:01:46;;;;;;;;;;;;;;;;;;5094403;28;19924;-65
2023/05/20 07:04:11;;;;;;;;;;;;;;;;;;5095568;28;19924;-65
2023/05/20 07:06:37;;;;;;;;;;;;;;;;;;5089909;28;19939;-65
2023/05/20 07:09:04;;;;;;;;;;;;;;;;;;5088021;28;20422;-65
2023/05/20 07:11:30;;;;;;;;;;;;;;;;;;5099100;28;19920;-65
2023/05/20 07:13:56;;;;;;;;;;;;;;;;;;5089460;28;19934;-64
2023/05/20 07:16:22;;;;;;;;;;;;;;;;;;5073612;28;19928;-65
2023/05/20 07:18:47;;;;;;;;;;;;;;;;;;5068182;28;20349;-65
2023/05/20 07:21:13;;;;;;;;;;;;;;;;;;5079347;28;20404;-66
2023/05/20 07:23:39;;;;;;;;;;;;;;;;;;5074527;28;20039;-65
2023/05/20 07:26:05;;;;;;;;;;;;;;;;;;5073363;28;20014;-64
2023/05/20 07:28:31;;;;;;;;;;;;;;;;;;5085666;28;19928;-65
2023/05/20 07:30:59;;;;;;;;;;;;;;;;;;5068972;28;19971;-66
2023/05/20 07:33:24;;;;;;;;;;;;;;;;;;5081969;28;19962;-65
2023/05/20 07:35:53;;;;;;;;;;;;;;;;;;5078416;28;20003;-66
2023/05/20 07:38:19;;;;;;;;;;;;;;;;;;5070514;28;19924;-66
2023/05/20 07:40:45;;;;;;;;;;;;;;;;;;5078689;28;20440;-65
2023/05/20 07:43:11;;;;;;;;;;;;;;;;;;5091383;28;19934;-66
2023/05/20 07:45:37;;;;;;;;;;;;;;;;;;5106007;28;19928;-65
2023/05/20 07:48:03;;;;;;;;;;;;;;;;;;5094051;28;19920;-66
2023/05/20 07:50:28;;;;;;;;;;;;;;;;;;5093117;28;19924;-66
2023/05/20 07:52:55;;;;;;;;;;;;;;;;;;5093861;28;19927;-67
2023/05/20 07:55:21;;;;;;;;;;;;;;;;;;5090456;28;20361;-66
2023/05/20 07:57:46;;;;;;;;;;;;;;;;;;5085385;28;19935;-66
2023/05/20 08:00:13;;;;;;;;;;;;;;;;;;5090668;28;19927;-65
2023/05/20 08:02:39;;;;;;;;;;;;;;;;;;5089330;28;20319;-65
2023/05/20 08:05:05;;;;;;;;;;;;;;;;;;5089513;28;20018;-65
2023/05/20 08:07:31;;;;;;;;;;;;;;;;;;5084908;28;20011;-65
2023/05/20 08:09:57;;;;;;;;;;;;;;;;;;5085084;28;19938;-65
2023/05/20 08:12:23;;;;;;;;;;;;;;;;;;5085694;28;19921;-65
2023/05/20 08:14:48;;;;;;;;;;;;;;;;;;5087753;28;19985;-64
2023/05/20 08:17:14;;;;;;;;;;;;;;;;;;5091531;28;20446;-63
2023/05/20 08:19:40;;;;;;;;;;;;;;;;;;5109851;28;20019;-63
2023/05/20 08:22:07;;;;;;;;;;;;;;;;;;5094036;28;19920;-63
2023/05/20 08:24:33;;;;;;;;;;;;;;;;;;5093699;28;19989;-63
2023/05/20 08:26:59;;;;;;;;;;;;;;;;;;5093107;28;19920;-63
2023/05/20 08:29:25;;;;;;;;;;;;;;;;;;5088384;28;19920;-63
2023/05/20 08:31:51;;;;;;;;;;;;;;;;;;5092982;28;19926;-63
2023/05/20 08:34:17;;;;;;;;;;;;;;;;;;5093416;28;19940;-63
2023/05/20 08:36:44;;;;;;;;;;;;;;;;;;5092198;28;19966;-63
2023/05/20 08:39:10;;;;;;;;;;;;;;;;;;5093644;28;20007;-65
2023/05/20 08:41:36;;;;;;;;;;;;;;;;;;5087971;28;20007;-63
2023/05/20 08:44:02;;;;;;;;;;;;;;;;;;5091287;28;19926;-63
2023/05/20 08:46:28;;;;;;;;;;;;;;;;;;5085244;28;19921;-63
2023/05/20 08:48:54;;;;;;;;;;;;;;;;;;5076798;28;19921;-63
2023/05/20 08:51:21;;;;;;;;;;;;;;;;;;5076204;28;20269;-63
2023/05/20 08:53:46;;;;;;;;;;;;;;;;;;5086840;28;19928;-63
2023/05/20 08:56:12;;;;;;;;;;;;;;;;;;5093208;28;19927;-63
2023/05/20 08:58:38;;;;;;;;;;;;;;;;;;5093105;28;19970;-63
2023/05/20 09:01:04;;;;;;;;;;;;;;;;;;5091147;28;20002;-63
2023/05/20 09:03:31;;;;;;;;;;;;;;;;;;5092548;28;19942;-63
2023/05/20 09:05:56;;;;;;;;;;;;;;;;;;5089300;28;19939;-63
2023/05/20 09:08:22;;;;;;;;;;;;;;;;;;5087852;28;19920;-64
2023/05/20 09:10:48;;;;;;;;;;;;;;;;;;5092511;28;19920;-63
2023/05/20 09:13:14;;;;;;;;;;;;;;;;;;5078535;28;19924;-63
2023/05/20 09:15:40;;;;;;;;;;;;;;;;;;5092341;28;20514;-63
2023/05/20 09:18:06;;;;;;;;;;;;;;;;;;5092972;28;20377;-64
2023/05/20 09:20:34;;;;;;;;;;;;;;;;;;5091621;28;20136;-64
2023/05/20 09:23:00;;;;;;;;;;;;;;;;;;5087280;28;20003;-63
2023/05/20 09:25:26;;;;;;;;;;;;;;;;;;5088359;28;19928;-63
2023/05/20 09:27:52;;;;;;;;;;;;;;;;;;5091685;28;19920;-62
2023/05/20 09:30:18;;;;;;;;;;;;;;;;;;5090596;28;19973;-63
2023/05/20 09:32:44;;;;;;;;;;;;;;;;;;5091439;28;19928;-62
2023/05/20 09:35:10;;;;;;;;;;;;;;;;;;5088010;28;19932;-62
2023/05/20 09:37:36;;;;;;;;;;;;;;;;;;5085093;28;19968;-62
2023/05/20 09:40:02;;;;;;;;;;;;;;;;;;5104510;28;19924;-62
2023/05/20 09:42:28;;;;;;;;;;;;;;;;;;5090512;28;19924;-62
2023/05/20 09:44:55;;;;;;;;;;;;;;;;;;5082104;28;20278;-62
2023/05/20 09:47:21;;;;;;;;;;;;;;;;;;5090276;28;20011;-62
2023/05/20 09:49:47;;;;;;;;;;;;;;;;;;5039944;22;1733022;-67
2023/05/20 09:52:13;;;;;;;;;;;;;;;;;;5065574;28;19924;-66
2023/05/20 09:54:39;;;;;;;;;;;;;;;;;;5070889;28;19966;-67
2023/05/20 09:57:05;;;;;;;;;;;;;;;;;;5071606;28;19925;-67
2023/05/20 09:59:31;;;;;;;;;;;;;;;;;;5068448;28;19920;-67
2023/05/20 10:01:57;;;;;;;;;;;;;;;;;;5065481;28;19920;-67
2023/05/20 10:04:23;;;;;;;;;;;;;;;;;;5063599;28;19924;-66
2023/05/20 10:06:49;;;;;;;;;;;;;;;;;;5056920;28;19924;-66
2023/05/20 10:09:15;;;;;;;;;;;;;;;;;;5060182;28;19921;-66
2023/05/20 10:11:41;;;;;;;;;;;;;;;;;;5071791;28;19925;-66
2023/05/20 10:14:07;;;;;;;;;;;;;;;;;;5066458;28;20350;-66
2023/05/20 10:16:33;;;;;;;;;;;;;;;;;;5068871;28;19924;-66
2023/05/20 10:18:59;;;;;;;;;;;;;;;;;;5066633;28;20352;-66
2023/05/20 10:21:25;;;;;;;;;;;;;;;;;;5058136;28;19924;-67
2023/05/20 10:23:51;;;;;;;;;;;;;;;;;;5068490;28;20114;-66
2023/05/20 10:26:17;;;;;;;;;;;;;;;;;;5069699;28;19920;-67
2023/05/20 10:28:43;;;;;;;;;;;;;;;;;;5067988;28;19968;-66
2023/05/20 10:31:08;;;;;;;;;;;;;;;;;;5053538;28;19920;-66
2023/05/20 10:33:34;;;;;;;;;;;;;;;;;;5062090;28;19924;-66
2023/05/20 10:36:01;;;;;;;;;;;;;;;;;;5068814;28;19947;-67
2023/05/20 10:38:27;;;;;;;;;;;;;;;;;;5067370;28;19927;-67
2023/05/20 10:40:53;;;;;;;;;;;;;;;;;;5060195;28;19928;-67
2023/05/20 10:43:19;;;;;;;;;;;;;;;;;;5057602;28;20065;-68
2023/05/20 10:45:45;;;;;;;;;;;;;;;;;;5066618;28;19946;-67
2023/05/20 10:48:11;;;;;;;;;;;;;;;;;;5064741;28;19924;-67
2023/05/20 10:50:37;;;;;;;;;;;;;;;;;;5081825;28;20392;-67
2023/05/20 10:53:03;;;;;;;;;;;;;;;;;;5068623;28;20377;-67
2023/05/20 10:55:29;;;;;;;;;;;;;;;;;;5068179;28;19971;-67
2023/05/20 10:57:55;;;;;;;;;;;;;;;;;;5061814;28;19983;-67
2023/05/20 11:00:21;;;;;;;;;;;;;;;;;;5064684;28;20040;-67
2023/05/20 11:02:47;;;;;;;;;;;;;;;;;;5068952;28;19921;-67
2023/05/20 11:05:13;;;;;;;;;;;;;;;;;;5056643;28;20144;-67
2023/05/20 11:07:39;;;;;;;;;;;;;;;;;;5070598;28;19932;-67
2023/05/20 11:10:05;;;;;;;;;;;;;;;;;;5062189;28;19921;-67
2023/05/20 11:12:31;;;;;;;;;;;;;;;;;;5058728;28;20287;-67
2023/05/20 11:14:57;;;;;;;;;;;;;;;;;;5059628;28;19932;-67
2023/05/20 11:17:22;;;;;;;;;;;;;;;;;;5049536;28;19933;-67
2023/05/20 11:19:48;;;;;;;;;;;;;;;;;;5067614;28;20376;-67
2023/05/20 11:22:14;;;;;;;;;;;;;;;;;;5068696;28;19920;-67
2023/05/20 11:24:40;;;;;;;;;;;;;;;;;;5068955;28;20353;-68
2023/05/20 11:27:06;;;;;;;;;;;;;;;;;;5068982;28;19924;-67
2023/05/20 11:29:32;;;;;;;;;;;;;;;;;;5062036;28;19929;-68
2023/05/20 11:31:58;;;;;;;;;;;;;;;;;;5059382;28;19928;-67
2023/05/20 11:34:24;;;;;;;;;;;;;;;;;;5056666;28;19928;-67
2023/05/20 11:36:51;;;;;;;;;;;;;;;;;;5060221;28;19939;-67
2023/05/20 11:39:16;;;;;;;;;;;;;;;;;;5053782;28;19927;-68
2023/05/20 11:41:42;;;;;;;;;;;;;;;;;;5059677;28;20351;-67
2023/05/20 11:44:08;;;;;;;;;;;;;;;;;;5070692;28;20382;-68
2023/05/20 11:46:34;;;;;;;;;;;;;;;;;;5069128;28;19966;-68
2023/05/20 11:49:00;;;;;;;;;;;;;;;;;;5073156;28;19960;-67
2023/05/20 11:51:26;;;;;;;;;;;;;;;;;;5071676;28;19967;-67
2023/05/20 11:53:52;;;;;;;;;;;;;;;;;;5072326;28;19928;-67
2023/05/20 11:56:18;;;;;;;;;;;;;;;;;;5067515;28;19957;-67
2023/05/20 11:58:44;;;;;;;;;;;;;;;;;;5062104;28;19921;-68
2023/05/20 12:01:10;;;;;;;;;;;;;;;;;;5068750;28;19969;-68
2023/05/20 12:03:36;;;;;;;;;;;;;;;;;;5071483;28;20373;-67
2023/05/20 12:06:02;;;;;;;;;;;;;;;;;;5061745;28;19943;-68
2023/05/20 12:08:28;;;;;;;;;;;;;;;;;;5051738;28;20033;-68
2023/05/20 12:10:54;;;;;;;;;;;;;;;;;;5070630;28;19935;-68
2023/05/20 12:13:22;;;;;;;;;;;;;;;;;;5068452;28;19936;-67
2023/05/20 12:15:48;;;;;;;;;;;;;;;;;;5063005;28;20011;-67
2023/05/20 12:18:13;;;;;;;;;;;;;;;;;;5065682;28;20011;-67
2023/05/20 12:20:39;;;;;;;;;;;;;;;;;;5063449;28;19920;-67
2023/05/20 12:23:05;;;;;;;;;;;;;;;;;;5064830;28;19932;-68
2023/05/20 12:25:31;;;;;;;;;;;;;;;;;;5075491;28;20293;-67
2023/05/20 12:27:57;;;;;;;;;;;;;;;;;;5067837;28;19986;-67
2023/05/20 12:30:23;;;;;;;;;;;;;;;;;;5048731;28;19924;-67
2023/05/20 12:32:52;;;;;;;;;;;;;;;;;;5071503;28;19928;-67
2023/05/20 12:35:18;;;;;;;;;;;;;;;;;;5044778;28;19932;-69
2023/05/20 12:37:44;;;;;;;;;;;;;;;;;;5071055;28;19920;-69
2023/05/20 12:40:10;;;;;;;;;;;;;;;;;;5065772;28;19920;-68
2023/05/20 12:42:36;;;;;;;;;;;;;;;;;;5064670;28;19930;-68
2023/05/20 12:45:02;;;;;;;;;;;;;;;;;;5057573;28;19925;-67
2023/05/20 12:47:28;;;;;;;;;;;;;;;;;;5082675;28;19920;-68
2023/05/20 12:49:54;;;;;;;;;;;;;;;;;;5061120;28;19932;-68
2023/05/20 12:52:20;;;;;;;;;;;;;;;;;;5061299;28;19926;-68
2023/05/20 12:54:46;;;;;;;;;;;;;;;;;;5068066;28;19928;-69
2023/05/20 12:57:12;;;;;;;;;;;;;;;;;;5068692;28;19943;-68
2023/05/20 12:59:38;;;;;;;;;;;;;;;;;;5069014;28;19924;-69
2023/05/20 13:02:04;;;;;;;;;;;;;;;;;;5068134;28;19943;-68
2023/05/20 13:04:30;;;;;;;;;;;;;;;;;;5069507;28;20822;-68
2023/05/20 13:06:56;;;;;;;;;;;;;;;;;;5069330;28;19927;-68
2023/05/20 13:09:22;;;;;;;;;;;;;;;;;;5067146;28;19924;-67
2023/05/20 13:11:48;;;;;;;;;;;;;;;;;;5068646;28;20358;-68
2023/05/20 13:14:14;;;;;;;;;;;;;;;;;;5051340;28;19932;-68
2023/05/20 13:16:40;;;;;;;;;;;;;;;;;;5061312;28;19939;-68
2023/05/20 13:19:06;;;;;;;;;;;;;;;;;;5068881;28;19921;-68
2023/05/20 13:21:33;;;;;;;;;;;;;;;;;;5065039;28;20329;-69
2023/05/20 13:23:59;;;;;;;;;;;;;;;;;;5065466;28;19924;-68
2023/05/20 13:26:25;;;;;;;;;;;;;;;;;;5066450;28;19931;-69
2023/05/20 13:28:51;;;;;;;;;;;;;;;;;;5066801;28;20377;-69
2023/05/20 13:31:17;;;;;;;;;;;;;;;;;;5062737;28;19956;-68
2023/05/20 13:33:43;;;;;;;;;;;;;;;;;;5057165;28;20415;-68
2023/05/20 13:36:09;;;;;;;;;;;;;;;;;;5055518;28;20424;-68
2023/05/20 13:38:35;;;;;;;;;;;;;;;;;;5061015;28;20277;-68
2023/05/20 13:41:01;;;;;;;;;;;;;;;;;;5064089;28;19928;-69
2023/05/20 13:43:28;;;;;;;;;;;;;;;;;;5062466;28;19921;-69
2023/05/20 13:45:54;;;;;;;;;;;;;;;;;;5069456;28;20419;-69
2023/05/20 13:48:20;;;;;;;;;;;;;;;;;;5070791;28;19921;-69
2023/05/20 13:50:47;;;;;;;;;;;;;;;;;;5070032;28;19925;-69
2023/05/20 13:53:13;;;;;;;;;;;;;;;;;;5050552;28;19975;-69
2023/05/20 13:55:39;;;;;;;;;;;;;;;;;;5057784;28;19970;-69
2023/05/20 13:58:07;;;;;;;;;;;;;;;;;;5066836;28;19926;-68
2023/05/20 14:00:33;;;;;;;;;;;;;;;;;;5069537;28;19924;-69
2023/05/20 14:02:59;;;;;;;;;;;;;;;;;;5065769;28;19973;-69
2023/05/20 14:05:26;;;;;;;;;;;;;;;;;;5064409;28;19982;-69
2023/05/20 14:07:52;;;;;;;;;;;;;;;;;;5067099;28;19924;-68
2023/05/20 14:10:18;;;;;;;;;;;;;;;;;;5063185;28;20269;-69
2023/05/20 14:12:46;;;;;;;;;;;;;;;;;;5065219;28;19926;-69
2023/05/20 14:15:12;;;;;;;;;;;;;;;;;;5044943;28;19932;-69
2023/05/20 14:17:38;;;;;;;;;;;;;;;;;;5062764;28;19927;-68
2023/05/20 14:20:05;;;;;;;;;;;;;;;;;;5069925;28;19924;-69
2023/05/20 14:22:30;;;;;;;;;;;;;;;;;;5080590;28;20369;-68
2023/05/20 14:24:56;;;;;;;;;;;;;;;;;;5049003;28;19985;-69
2023/05/20 14:27:22;;;;;;;;;;;;;;;;;;5068018;28;19928;-69
2023/05/20 14:29:48;;;;;;;;;;;;;;;;;;5068760;28;19928;-68
2023/05/20 14:32:14;;;;;;;;;;;;;;;;;;5064518;28;19921;-68
2023/05/20 14:34:40;;;;;;;;;;;;;;;;;;5067857;28;19950;-69
2023/05/20 14:37:08;;;;;;;;;;;;;;;;;;5067041;28;19924;-68
2023/05/20 14:39:34;;;;;;;;;;;;;;;;;;5065852;28;19925;-69
2023/05/20 14:42:01;;;;;;;;;;;;;;;;;;5068587;28;19973;-69
2023/05/20 14:44:27;;;;;;;;;;;;;;;;;;5068463;28;20731;-69
2023/05/20 14:46:53;;;;;;;;;;;;;;;;;;5072658;28;19924;-68
2023/05/20 14:49:19;;;;;;;;;;;;;;;;;;5051223;28;19970;-68
2023/05/20 14:51:45;;;;;;;;;;;;;;;;;;5055953;28;19924;-69
2023/05/20 14:54:13;;;;;;;;;;;;;;;;;;5065529;28;19932;-69
2023/05/20 14:56:39;;;;;;;;;;;;;;;;;;5061533;28;21532;-69
2023/05/20 14:59:05;;;;;;;;;;;;;;;;;;5049513;28;19924;-69
2023/05/20 15:01:31;;;;;;;;;;;;;;;;;;5063835;28;19935;-68
2023/05/20 15:03:57;;;;;;;;;;;;;;;;;;5068640;28;19943;-68
2023/05/20 15:06:23;;;;;;;;;;;;;;;;;;5054294;28;20672;-68
2023/05/20 15:08:49;;;;;;;;;;;;;;;;;;5053750;28;19924;-68
2023/05/20 15:11:15;;;;;;;;;;;;;;;;;;5069675;28;19970;-68
2023/05/20 15:13:41;;;;;;;;;;;;;;;;;;5069565;28;19920;-68
2023/05/20 15:16:07;;;;;;;;;;;;;;;;;;5064623;28;19931;-69
2023/05/20 15:18:33;;;;;;;;;;;;;;;;;;5051659;28;19929;-68
2023/05/20 15:21:01;;;;;;;;;;;;;;;;;;5053489;28;19998;-68
2023/05/20 15:23:27;;;;;;;;;;;;;;;;;;5069923;28;20003;-68
2023/05/20 15:25:53;;;;;;;;;;;;;;;;;;5060184;28;20019;-68
2023/05/20 15:28:19;;;;;;;;;;;;;;;;;;5073017;28;19924;-68
2023/05/20 15:30:45;;;;;;;;;;;;;;;;;;5073649;28;19924;-69
2023/05/20 15:33:11;;;;;;;;;;;;;;;;;;5067122;28;19924;-69
2023/05/20 15:35:37;;;;;;;;;;;;;;;;;;5056672;28;19936;-69
2023/05/20 15:38:03;;;;;;;;;;;;;;;;;;5053007;28;19927;-68
2023/05/20 15:40:29;;;;;;;;;;;;;;;;;;5036752;28;20377;-68
2023/05/20 15:42:55;;;;;;;;;;;;;;;;;;5058912;28;19924;-68
2023/05/20 15:45:21;;;;;;;;;;;;;;;;;;5072839;28;19924;-68
2023/05/20 15:47:47;;;;;;;;;;;;;;;;;;5067941;28;20000;-69
2023/05/20 15:50:13;;;;;;;;;;;;;;;;;;5043249;28;19973;-68
2023/05/20 15:52:39;;;;;;;;;;;;;;;;;;5074624;28;19924;-68
2023/05/20 15:55:05;;;;;;;;;;;;;;;;;;5072438;28;19924;-69
2023/05/20 15:57:31;;;;;;;;;;;;;;;;;;5072848;28;19921;-69
2023/05/20 15:59:57;;;;;;;;;;;;;;;;;;5072916;28;19928;-69
2023/05/20 16:02:23;;;;;;;;;;;;;;;;;;5072909;28;19928;-69
2023/05/20 16:04:49;;;;;;;;;;;;;;;;;;5060373;28;20266;-69
2023/05/20 16:07:15;;;;;;;;;;;;;;;;;;5061933;28;19924;-69
2023/05/20 16:09:41;;;;;;;;;;;;;;;;;;5060146;28;19928;-69
2023/05/20 16:12:07;;;;;;;;;;;;;;;;;;5069386;28;19925;-69
2023/05/20 16:14:33;;;;;;;;;;;;;;;;;;5062576;28;20671;-69
2023/05/20 16:16:59;;;;;;;;;;;;;;;;;;5073520;28;20074;-69
2023/05/20 16:19:25;;;;;;;;;;;;;;;;;;5072676;28;19925;-69
2023/05/20 16:21:51;;;;;;;;;;;;;;;;;;5065604;28;20329;-69
2023/05/20 16:24:17;;;;;;;;;;;;;;;;;;5060279;28;19924;-68
2023/05/20 16:26:42;;;;;;;;;;;;;;;;;;5072512;28;19959;-68
2023/05/20 16:29:08;;;;;;;;;;;;;;;;;;5070884;28;19975;-68
2023/05/20 16:31:34;;;;;;;;;;;;;;;;;;5072201;28;19931;-69
2023/05/20 16:34:00;;;;;;;;;;;;;;;;;;5066188;28;19928;-69
2023/05/20 16:36:26;;;;;;;;;;;;;;;;;;5072266;28;19974;-68